Marine Blue — 3ECO4 — position and weather

sailwx.info

Track history (hours):
 
Tides and Currents Weather Stations Pressure Air Temp Water Temp Dewpoint Dewpoint Depression Visibility Wind Speed Wind Dir Waves Ship Positions

Marine Blue

Last reported at 2016-Nov-18 14:32 UTC. Time now 2016-Dec-10 12:47 UTC.
Position N 23°15' E 117°46'.
Warning: this ship's position is 21 days out of date.

Length 125 m; draft 7.7 m.

Type: Cargo ship. MMSI: 371414000.

Date/timePositionNaut miles runAvg speedWind from/ knotsBaromVisibWave heightAir tempDewpointWater temp
2016-Nov-18 14:32N 23°15' E 117°46'2411.7
2016-Nov-18 12:28N 23°31' E 118°06'1212.7
2016-Nov-18 11:31N 23°38' E 118°16'  
2016-Nov-14 08:29N 34°40' E 135°13'0 0.0
2016-Nov-14 05:22N 34°40' E 135°13'0 0.0
2016-Nov-14 00:22N 34°40' E 135°13'0 0.0
2016-Nov-13 23:22N 34°40' E 135°13'0 0.0
2016-Nov-13 22:10N 34°40' E 135°13'0 0.0
2016-Nov-13 19:28N 34°40' E 135°13'0 0.0
2016-Nov-13 18:28N 34°40' E 135°13'0 0.0
2016-Nov-13 17:28N 34°40' E 135°13'0 0.0
2016-Nov-13 15:28N 34°40' E 135°13'0 0.0
2016-Nov-13 13:22N 34°40' E 135°13'0 0.0
2016-Nov-13 10:28N 34°40' E 135°13'0 0.0
2016-Nov-13 08:28N 34°40' E 135°13'0 0.0
2016-Nov-13 05:28N 34°40' E 135°13'0 0.0
2016-Nov-13 03:28N 34°40' E 135°13'0 0.0
2016-Nov-12 23:28N 34°40' E 135°13'0 0.0
2016-Nov-12 21:28N 34°40' E 135°13'0 0.0
2016-Nov-12 19:34N 34°40' E 135°13'0 0.0
2016-Nov-12 17:33N 34°40' E 135°13'0 0.0
2016-Nov-12 16:33N 34°40' E 135°13'0 0.0
2016-Nov-12 15:33N 34°40' E 135°13'0 0.0
2016-Nov-12 14:33N 34°40' E 135°13'0 0.0
2016-Nov-12 13:33N 34°40' E 135°13'0 0.0
2016-Nov-12 12:33N 34°40' E 135°13'0 0.0
2016-Nov-12 11:33N 34°40' E 135°13'0 0.0
2016-Nov-12 09:33N 34°40' E 135°13'0 0.0
2016-Nov-12 06:33N 34°40' E 135°13'0 0.0
2016-Nov-12 03:33N 34°40' E 135°13'0 0.0
2016-Nov-12 02:33N 34°40' E 135°13'0 0.0
2016-Nov-12 00:33N 34°40' E 135°13'0 0.0
2016-Nov-11 23:33N 34°40' E 135°13'0 0.0
2016-Nov-11 19:33N 34°40' E 135°13'0 0.0
2016-Nov-11 15:33N 34°40' E 135°13'0 0.0
2016-Nov-11 14:33N 34°40' E 135°13'0 0.0
2016-Nov-11 10:33N 34°40' E 135°13'0 0.0
2016-Nov-11 09:33N 34°40' E 135°13'0 0.0
2016-Nov-11 06:33N 34°40' E 135°13'0 0.0
2016-Nov-11 05:33N 34°40' E 135°13'0 0.0
2016-Nov-11 04:33N 34°40' E 135°13'0 0.0
2016-Nov-11 03:33N 34°40' E 135°13'0 0.0
2016-Nov-11 02:33N 34°40' E 135°13'0 0.0
2016-Nov-11 01:33N 34°40' E 135°13'0 0.0
2016-Nov-11 00:33N 34°40' E 135°13'0 0.0
2016-Nov-10 23:33N 34°40' E 135°13'0 0.0
2016-Nov-10 22:33N 34°40' E 135°13'3 1.6
2016-Nov-10 20:29N 34°38' E 135°17'0 0.0
2016-Nov-10 18:29N 34°38' E 135°17'16 8.5
2016-Nov-10 16:33N 34°24' E 135°07'10 9.3
2016-Nov-10 15:29N 34°17' E 134°59'238 9.1
2016-Nov-09 13:18N 35°03' E 139°42'23 4.9
2016-Nov-09 08:32N 35°26' E 139°40'0 0.0
2016-Nov-09 07:32N 35°26' E 139°40'0 0.0
2016-Nov-09 05:32N 35°26' E 139°40'0 0.0
2016-Nov-09 04:32N 35°26' E 139°40'0 0.0
2016-Nov-09 02:32N 35°26' E 139°40'0 0.0
2016-Nov-08 23:32N 35°26' E 139°40'0 0.0
2016-Nov-08 22:32N 35°26' E 139°40'0 0.0
2016-Nov-08 21:32N 35°26' E 139°40'0 0.0
2016-Nov-08 20:32N 35°26' E 139°40'0 0.0
2016-Nov-08 19:32N 35°26' E 139°40'0 0.0
2016-Nov-08 18:32N 35°26' E 139°40'0 0.0
2016-Nov-08 17:32N 35°26' E 139°40'0 0.0
2016-Nov-08 15:32N 35°26' E 139°40'  
Track history (hours):
 
Tides and Currents Weather Stations Pressure Air Temp Water Temp Dewpoint Dewpoint Depression Visibility Wind Speed Wind Dir Waves Ship Positions

Marine Blue

Last reported at 2016-Nov-18 14:32 UTC. Time now 2016-Dec-10 12:47 UTC.
Position N 23°15' E 117°46'.
Warning: this ship's position is 21 days out of date.

Length 125 m; draft 7.7 m.

Type: Cargo ship. MMSI: 371414000.

Date/timePositionNaut miles runAvg speedWind from/ knotsBaromVisibWave heightAir tempDewpointWater temp
2016-Nov-18 14:32N 23°15' E 117°46'2411.7
2016-Nov-18 12:28N 23°31' E 118°06'1212.7
2016-Nov-18 11:31N 23°38' E 118°16'  
2016-Nov-14 08:29N 34°40' E 135°13'0 0.0
2016-Nov-14 05:22N 34°40' E 135°13'0 0.0
2016-Nov-14 00:22N 34°40' E 135°13'0 0.0
2016-Nov-13 23:22N 34°40' E 135°13'0 0.0
2016-Nov-13 22:10N 34°40' E 135°13'0 0.0
2016-Nov-13 19:28N 34°40' E 135°13'0 0.0
2016-Nov-13 18:28N 34°40' E 135°13'0 0.0
2016-Nov-13 17:28N 34°40' E 135°13'0 0.0
2016-Nov-13 15:28N 34°40' E 135°13'0 0.0
2016-Nov-13 13:22N 34°40' E 135°13'0 0.0
2016-Nov-13 10:28N 34°40' E 135°13'0 0.0
2016-Nov-13 08:28N 34°40' E 135°13'0 0.0
2016-Nov-13 05:28N 34°40' E 135°13'0 0.0
2016-Nov-13 03:28N 34°40' E 135°13'0 0.0
2016-Nov-12 23:28N 34°40' E 135°13'0 0.0
2016-Nov-12 21:28N 34°40' E 135°13'0 0.0
2016-Nov-12 19:34N 34°40' E 135°13'0 0.0
2016-Nov-12 17:33N 34°40' E 135°13'0 0.0
2016-Nov-12 16:33N 34°40' E 135°13'0 0.0
2016-Nov-12 15:33N 34°40' E 135°13'0 0.0
2016-Nov-12 14:33N 34°40' E 135°13'0 0.0
2016-Nov-12 13:33N 34°40' E 135°13'0 0.0
2016-Nov-12 12:33N 34°40' E 135°13'0 0.0
2016-Nov-12 11:33N 34°40' E 135°13'0 0.0
2016-Nov-12 09:33N 34°40' E 135°13'0 0.0
2016-Nov-12 06:33N 34°40' E 135°13'0 0.0
2016-Nov-12 03:33N 34°40' E 135°13'0 0.0
2016-Nov-12 02:33N 34°40' E 135°13'0 0.0
2016-Nov-12 00:33N 34°40' E 135°13'0 0.0
2016-Nov-11 23:33N 34°40' E 135°13'0 0.0
2016-Nov-11 19:33N 34°40' E 135°13'0 0.0
2016-Nov-11 15:33N 34°40' E 135°13'0 0.0
2016-Nov-11 14:33N 34°40' E 135°13'0 0.0
2016-Nov-11 10:33N 34°40' E 135°13'0 0.0
2016-Nov-11 09:33N 34°40' E 135°13'0 0.0
2016-Nov-11 06:33N 34°40' E 135°13'0 0.0
2016-Nov-11 05:33N 34°40' E 135°13'0 0.0
2016-Nov-11 04:33N 34°40' E 135°13'0 0.0
2016-Nov-11 03:33N 34°40' E 135°13'0 0.0
2016-Nov-11 02:33N 34°40' E 135°13'0 0.0
2016-Nov-11 01:33N 34°40' E 135°13'0 0.0
2016-Nov-11 00:33N 34°40' E 135°13'0 0.0
2016-Nov-10 23:33N 34°40' E 135°13'0 0.0
2016-Nov-10 22:33N 34°40' E 135°13'3 1.6
2016-Nov-10 20:29N 34°38' E 135°17'0 0.0
2016-Nov-10 18:29N 34°38' E 135°17'16 8.5
2016-Nov-10 16:33N 34°24' E 135°07'10 9.3
2016-Nov-10 15:29N 34°17' E 134°59'238 9.1
2016-Nov-09 13:18N 35°03' E 139°42'23 4.9
2016-Nov-09 08:32N 35°26' E 139°40'0 0.0
2016-Nov-09 07:32N 35°26' E 139°40'0 0.0
2016-Nov-09 05:32N 35°26' E 139°40'0 0.0
2016-Nov-09 04:32N 35°26' E 139°40'0 0.0
2016-Nov-09 02:32N 35°26' E 139°40'0 0.0
2016-Nov-08 23:32N 35°26' E 139°40'0 0.0
2016-Nov-08 22:32N 35°26' E 139°40'0 0.0
2016-Nov-08 21:32N 35°26' E 139°40'0 0.0
2016-Nov-08 20:32N 35°26' E 139°40'0 0.0
2016-Nov-08 19:32N 35°26' E 139°40'0 0.0
2016-Nov-08 18:32N 35°26' E 139°40'0 0.0
2016-Nov-08 17:32N 35°26' E 139°40'0 0.0
2016-Nov-08 15:32N 35°26' E 139°40'  

Dump ship's entire track history